sensor_id;sensor_type;location;lat;lon;timestamp;P1;durP1;ratioP1;P2;durP2;ratioP2
46835;SDS011;32573;51.290;6.926;2022-12-07T00:01:46;13.82;;;8.40;;
46835;SDS011;32573;51.290;6.926;2022-12-07T00:04:16;16.20;;;9.52;;
46835;SDS011;32573;51.290;6.926;2022-12-07T00:06:50;15.32;;;8.80;;
46835;SDS011;32573;51.290;6.926;2022-12-07T00:09:22;18.02;;;10.32;;
46835;SDS011;32573;51.290;6.926;2022-12-07T00:11:51;15.38;;;8.57;;
46835;SDS011;32573;51.290;6.926;2022-12-07T00:14:20;15.05;;;8.73;;
46835;SDS011;32573;51.290;6.926;2022-12-07T00:16:49;15.10;;;8.90;;
46835;SDS011;32573;51.290;6.926;2022-12-07T00:19:18;13.88;;;7.47;;
46835;SDS011;32573;51.290;6.926;2022-12-07T00:21:48;14.30;;;8.77;;
46835;SDS011;32573;51.290;6.926;2022-12-07T00:24:20;16.60;;;9.63;;
46835;SDS011;32573;51.290;6.926;2022-12-07T00:26:50;19.70;;;11.15;;
46835;SDS011;32573;51.290;6.926;2022-12-07T00:29:20;25.35;;;14.18;;
46835;SDS011;32573;51.290;6.926;2022-12-07T00:31:50;20.52;;;11.02;;
46835;SDS011;32573;51.290;6.926;2022-12-07T00:34:19;17.90;;;10.90;;
46835;SDS011;32573;51.290;6.926;2022-12-07T00:36:50;19.52;;;11.27;;
46835;SDS011;32573;51.290;6.926;2022-12-07T00:39:18;22.63;;;12.93;;
46835;SDS011;32573;51.290;6.926;2022-12-07T00:41:47;23.65;;;13.30;;
46835;SDS011;32573;51.290;6.926;2022-12-07T00:44:15;18.40;;;10.32;;
46835;SDS011;32573;51.290;6.926;2022-12-07T00:46:43;19.95;;;11.73;;
46835;SDS011;32573;51.290;6.926;2022-12-07T00:49:13;17.90;;;11.10;;
46835;SDS011;32573;51.290;6.926;2022-12-07T00:51:41;19.20;;;11.00;;
46835;SDS011;32573;51.290;6.926;2022-12-07T00:54:11;21.40;;;11.00;;
46835;SDS011;32573;51.290;6.926;2022-12-07T00:56:39;15.48;;;9.73;;
46835;SDS011;32573;51.290;6.926;2022-12-07T00:59:10;16.45;;;10.02;;
46835;SDS011;32573;51.290;6.926;2022-12-07T01:01:41;15.80;;;9.68;;
46835;SDS011;32573;51.290;6.926;2022-12-07T01:04:10;16.50;;;9.82;;
46835;SDS011;32573;51.290;6.926;2022-12-07T01:06:38;21.95;;;12.80;;
46835;SDS011;32573;51.290;6.926;2022-12-07T01:09:07;23.05;;;13.20;;
46835;SDS011;32573;51.290;6.926;2022-12-07T01:11:36;23.70;;;12.10;;
46835;SDS011;32573;51.290;6.926;2022-12-07T01:14:06;23.15;;;12.43;;
46835;SDS011;32573;51.290;6.926;2022-12-07T01:16:34;19.63;;;11.70;;
46835;SDS011;32573;51.290;6.926;2022-12-07T01:19:03;17.30;;;10.73;;
46835;SDS011;32573;51.290;6.926;2022-12-07T01:21:33;22.15;;;13.00;;
46835;SDS011;32573;51.290;6.926;2022-12-07T01:24:05;22.10;;;12.80;;
46835;SDS011;32573;51.290;6.926;2022-12-07T01:26:34;18.65;;;10.73;;
46835;SDS011;32573;51.290;6.926;2022-12-07T01:29:04;19.17;;;11.35;;
46835;SDS011;32573;51.290;6.926;2022-12-07T01:31:33;17.45;;;11.27;;
46835;SDS011;32573;51.290;6.926;2022-12-07T01:34:01;17.63;;;9.98;;
46835;SDS011;32573;51.290;6.926;2022-12-07T01:36:30;19.45;;;11.05;;
46835;SDS011;32573;51.290;6.926;2022-12-07T01:39:00;18.23;;;10.52;;
46835;SDS011;32573;51.290;6.926;2022-12-07T01:41:32;20.23;;;12.48;;
46835;SDS011;32573;51.290;6.926;2022-12-07T01:44:17;19.45;;;11.35;;
46835;SDS011;32573;51.290;6.926;2022-12-07T01:46:49;23.45;;;12.95;;
46835;SDS011;32573;51.290;6.926;2022-12-07T01:49:21;18.73;;;11.50;;
46835;SDS011;32573;51.290;6.926;2022-12-07T01:51:56;17.33;;;10.18;;
46835;SDS011;32573;51.290;6.926;2022-12-07T01:54:29;21.30;;;12.70;;
46835;SDS011;32573;51.290;6.926;2022-12-07T01:56:58;19.55;;;10.45;;
46835;SDS011;32573;51.290;6.926;2022-12-07T01:59:28;17.75;;;9.77;;
46835;SDS011;32573;51.290;6.926;2022-12-07T02:01:57;16.92;;;9.82;;
46835;SDS011;32573;51.290;6.926;2022-12-07T02:04:25;24.00;;;12.80;;
46835;SDS011;32573;51.290;6.926;2022-12-07T02:06:54;23.25;;;13.30;;
46835;SDS011;32573;51.290;6.926;2022-12-07T02:09:23;25.73;;;14.95;;
46835;SDS011;32573;51.290;6.926;2022-12-07T02:11:51;23.60;;;13.43;;
46835;SDS011;32573;51.290;6.926;2022-12-07T02:14:21;25.55;;;14.88;;
46835;SDS011;32573;51.290;6.926;2022-12-07T02:16:54;26.75;;;15.82;;
46835;SDS011;32573;51.290;6.926;2022-12-07T02:22:34;18.70;;;11.65;;
46835;SDS011;32573;51.290;6.926;2022-12-07T02:25:21;17.75;;;10.80;;
46835;SDS011;32573;51.290;6.926;2022-12-07T02:27:59;23.52;;;13.18;;
46835;SDS011;32573;51.290;6.926;2022-12-07T02:30:35;19.95;;;11.57;;
46835;SDS011;32573;51.290;6.926;2022-12-07T02:33:14;21.88;;;11.50;;
46835;SDS011;32573;51.290;6.926;2022-12-07T02:35:49;18.55;;;11.57;;
46835;SDS011;32573;51.290;6.926;2022-12-07T02:38:25;26.13;;;14.05;;
46835;SDS011;32573;51.290;6.926;2022-12-07T02:40:57;20.13;;;11.32;;
46835;SDS011;32573;51.290;6.926;2022-12-07T02:43:32;19.63;;;11.63;;
46835;SDS011;32573;51.290;6.926;2022-12-07T02:46:06;20.05;;;11.45;;
46835;SDS011;32573;51.290;6.926;2022-12-07T02:48:38;15.68;;;9.55;;
46835;SDS011;32573;51.290;6.926;2022-12-07T02:51:09;22.60;;;13.55;;
46835;SDS011;32573;51.290;6.926;2022-12-07T02:53:38;20.98;;;12.60;;
46835;SDS011;32573;51.290;6.926;2022-12-07T02:56:10;19.42;;;10.73;;
46835;SDS011;32573;51.290;6.926;2022-12-07T02:58:54;23.35;;;12.90;;
46835;SDS011;32573;51.290;6.926;2022-12-07T03:01:33;22.92;;;11.77;;
46835;SDS011;32573;51.290;6.926;2022-12-07T03:04:12;17.95;;;10.88;;
46835;SDS011;32573;51.290;6.926;2022-12-07T03:06:51;22.70;;;12.90;;
46835;SDS011;32573;51.290;6.926;2022-12-07T03:09:27;21.35;;;12.88;;
46835;SDS011;32573;51.290;6.926;2022-12-07T03:12:01;23.63;;;13.45;;
46835;SDS011;32573;51.290;6.926;2022-12-07T03:14:38;26.67;;;14.80;;
46835;SDS011;32573;51.290;6.926;2022-12-07T03:17:16;23.38;;;13.50;;
46835;SDS011;32573;51.290;6.926;2022-12-07T03:22:17;23.40;;;13.02;;
46835;SDS011;32573;51.290;6.926;2022-12-07T03:24:47;24.65;;;14.35;;
46835;SDS011;32573;51.290;6.926;2022-12-07T03:27:21;24.90;;;14.13;;
46835;SDS011;32573;51.290;6.926;2022-12-07T03:29:54;27.23;;;15.80;;
46835;SDS011;32573;51.290;6.926;2022-12-07T03:32:29;27.83;;;16.73;;
46835;SDS011;32573;51.290;6.926;2022-12-07T03:37:33;27.42;;;15.60;;
46835;SDS011;32573;51.290;6.926;2022-12-07T03:40:07;29.25;;;15.05;;
46835;SDS011;32573;51.290;6.926;2022-12-07T03:42:44;27.55;;;15.68;;
46835;SDS011;32573;51.290;6.926;2022-12-07T03:45:13;23.95;;;13.43;;
46835;SDS011;32573;51.290;6.926;2022-12-07T03:47:48;22.17;;;12.52;;
46835;SDS011;32573;51.290;6.926;2022-12-07T03:50:25;24.48;;;13.93;;
46835;SDS011;32573;51.290;6.926;2022-12-07T03:53:02;22.50;;;12.18;;
46835;SDS011;32573;51.290;6.926;2022-12-07T03:55:37;23.15;;;13.00;;
46835;SDS011;32573;51.290;6.926;2022-12-07T03:58:10;28.85;;;16.20;;
46835;SDS011;32573;51.290;6.926;2022-12-07T04:00:41;25.73;;;13.93;;
46835;SDS011;32573;51.290;6.926;2022-12-07T04:03:12;24.35;;;13.10;;
46835;SDS011;32573;51.290;6.926;2022-12-07T04:05:41;23.30;;;12.93;;
46835;SDS011;32573;51.290;6.926;2022-12-07T04:08:11;21.58;;;11.85;;
46835;SDS011;32573;51.290;6.926;2022-12-07T04:10:39;27.63;;;14.23;;
46835;SDS011;32573;51.290;6.926;2022-12-07T04:13:08;23.00;;;12.30;;
46835;SDS011;32573;51.290;6.926;2022-12-07T04:15:36;20.25;;;10.55;;
46835;SDS011;32573;51.290;6.926;2022-12-07T04:18:08;21.73;;;11.15;;
46835;SDS011;32573;51.290;6.926;2022-12-07T04:20:40;21.17;;;11.68;;
46835;SDS011;32573;51.290;6.926;2022-12-07T04:23:10;18.90;;;10.38;;
46835;SDS011;32573;51.290;6.926;2022-12-07T04:25:38;20.17;;;11.70;;
46835;SDS011;32573;51.290;6.926;2022-12-07T04:28:07;24.88;;;13.57;;
46835;SDS011;32573;51.290;6.926;2022-12-07T04:30:35;20.02;;;12.35;;
46835;SDS011;32573;51.290;6.926;2022-12-07T04:33:04;19.77;;;11.45;;
46835;SDS011;32573;51.290;6.926;2022-12-07T04:35:32;17.25;;;10.88;;
46835;SDS011;32573;51.290;6.926;2022-12-07T04:38:02;20.35;;;11.77;;
46835;SDS011;32573;51.290;6.926;2022-12-07T04:40:30;16.80;;;10.48;;
46835;SDS011;32573;51.290;6.926;2022-12-07T04:42:59;16.10;;;9.43;;
46835;SDS011;32573;51.290;6.926;2022-12-07T04:45:27;16.63;;;9.48;;
46835;SDS011;32573;51.290;6.926;2022-12-07T04:47:58;15.57;;;9.05;;
46835;SDS011;32573;51.290;6.926;2022-12-07T04:50:27;15.60;;;8.75;;
46835;SDS011;32573;51.290;6.926;2022-12-07T04:52:55;14.38;;;8.65;;
46835;SDS011;32573;51.290;6.926;2022-12-07T04:55:25;24.38;;;13.32;;
46835;SDS011;32573;51.290;6.926;2022-12-07T04:57:53;14.38;;;8.27;;
46835;SDS011;32573;51.290;6.926;2022-12-07T05:00:21;19.23;;;11.60;;
46835;SDS011;32573;51.290;6.926;2022-12-07T05:02:50;15.90;;;9.23;;
46835;SDS011;32573;51.290;6.926;2022-12-07T05:05:19;18.13;;;9.68;;
46835;SDS011;32573;51.290;6.926;2022-12-07T05:07:47;19.27;;;10.90;;
46835;SDS011;32573;51.290;6.926;2022-12-07T05:10:16;17.73;;;10.63;;
46835;SDS011;32573;51.290;6.926;2022-12-07T05:12:46;16.98;;;9.88;;
46835;SDS011;32573;51.290;6.926;2022-12-07T05:15:14;17.25;;;10.18;;
46835;SDS011;32573;51.290;6.926;2022-12-07T05:17:44;17.70;;;10.02;;
46835;SDS011;32573;51.290;6.926;2022-12-07T05:20:13;19.30;;;10.85;;
46835;SDS011;32573;51.290;6.926;2022-12-07T05:22:41;14.85;;;9.13;;
46835;SDS011;32573;51.290;6.926;2022-12-07T05:25:10;15.23;;;9.10;;
46835;SDS011;32573;51.290;6.926;2022-12-07T05:27:38;18.23;;;10.25;;
46835;SDS011;32573;51.290;6.926;2022-12-07T05:30:08;13.88;;;8.73;;
46835;SDS011;32573;51.290;6.926;2022-12-07T05:32:37;17.75;;;9.48;;
46835;SDS011;32573;51.290;6.926;2022-12-07T05:35:06;14.30;;;8.90;;
46835;SDS011;32573;51.290;6.926;2022-12-07T05:37:35;12.95;;;8.23;;
46835;SDS011;32573;51.290;6.926;2022-12-07T05:40:05;12.75;;;7.68;;
46835;SDS011;32573;51.290;6.926;2022-12-07T05:42:34;16.10;;;8.02;;
46835;SDS011;32573;51.290;6.926;2022-12-07T05:45:09;15.63;;;8.70;;
46835;SDS011;32573;51.290;6.926;2022-12-07T05:47:43;13.57;;;8.00;;
46835;SDS011;32573;51.290;6.926;2022-12-07T05:50:14;17.52;;;9.40;;
46835;SDS011;32573;51.290;6.926;2022-12-07T05:53:03;12.60;;;7.25;;
46835;SDS011;32573;51.290;6.926;2022-12-07T05:58:02;11.25;;;6.43;;
46835;SDS011;32573;51.290;6.926;2022-12-07T06:00:49;11.57;;;6.53;;
46835;SDS011;32573;51.290;6.926;2022-12-07T06:03:18;13.45;;;7.85;;
46835;SDS011;32573;51.290;6.926;2022-12-07T06:05:47;13.30;;;8.18;;
46835;SDS011;32573;51.290;6.926;2022-12-07T06:08:18;12.63;;;7.43;;
46835;SDS011;32573;51.290;6.926;2022-12-07T06:10:48;11.60;;;6.88;;
46835;SDS011;32573;51.290;6.926;2022-12-07T06:13:40;12.18;;;7.10;;
46835;SDS011;32573;51.290;6.926;2022-12-07T06:16:14;13.10;;;7.07;;
46835;SDS011;32573;51.290;6.926;2022-12-07T06:18:44;12.25;;;7.05;;
46835;SDS011;32573;51.290;6.926;2022-12-07T06:21:12;10.20;;;5.80;;
46835;SDS011;32573;51.290;6.926;2022-12-07T06:23:42;13.15;;;6.97;;
46835;SDS011;32573;51.290;6.926;2022-12-07T06:26:11;10.93;;;5.93;;
46835;SDS011;32573;51.290;6.926;2022-12-07T06:28:43;8.98;;;5.38;;
46835;SDS011;32573;51.290;6.926;2022-12-07T06:31:11;9.23;;;5.22;;
46835;SDS011;32573;51.290;6.926;2022-12-07T06:33:44;10.13;;;5.78;;
46835;SDS011;32573;51.290;6.926;2022-12-07T06:36:13;9.75;;;5.28;;
46835;SDS011;32573;51.290;6.926;2022-12-07T06:38:41;10.48;;;6.55;;
46835;SDS011;32573;51.290;6.926;2022-12-07T06:41:14;12.38;;;7.07;;
46835;SDS011;32573;51.290;6.926;2022-12-07T06:43:43;9.38;;;5.20;;
46835;SDS011;32573;51.290;6.926;2022-12-07T06:46:11;9.13;;;5.13;;
46835;SDS011;32573;51.290;6.926;2022-12-07T06:48:42;9.02;;;4.70;;
46835;SDS011;32573;51.290;6.926;2022-12-07T06:51:11;10.52;;;5.35;;
46835;SDS011;32573;51.290;6.926;2022-12-07T06:53:55;9.55;;;5.00;;
46835;SDS011;32573;51.290;6.926;2022-12-07T06:56:27;8.88;;;4.78;;
46835;SDS011;32573;51.290;6.926;2022-12-07T06:59:00;9.20;;;5.25;;
46835;SDS011;32573;51.290;6.926;2022-12-07T07:01:32;8.68;;;4.93;;
46835;SDS011;32573;51.290;6.926;2022-12-07T07:04:03;7.13;;;4.05;;
46835;SDS011;32573;51.290;6.926;2022-12-07T07:06:32;9.13;;;5.03;;
46835;SDS011;32573;51.290;6.926;2022-12-07T07:09:00;13.13;;;7.80;;
46835;SDS011;32573;51.290;6.926;2022-12-07T07:11:31;7.18;;;4.40;;
46835;SDS011;32573;51.290;6.926;2022-12-07T07:14:00;7.75;;;4.65;;
46835;SDS011;32573;51.290;6.926;2022-12-07T07:16:29;8.77;;;5.18;;
46835;SDS011;32573;51.290;6.926;2022-12-07T07:18:58;10.63;;;6.13;;
46835;SDS011;32573;51.290;6.926;2022-12-07T07:21:28;9.52;;;5.00;;
46835;SDS011;32573;51.290;6.926;2022-12-07T07:23:56;7.43;;;4.43;;
46835;SDS011;32573;51.290;6.926;2022-12-07T07:26:25;8.82;;;4.95;;
46835;SDS011;32573;51.290;6.926;2022-12-07T07:28:55;7.03;;;4.15;;
46835;SDS011;32573;51.290;6.926;2022-12-07T07:31:24;9.30;;;4.65;;
46835;SDS011;32573;51.290;6.926;2022-12-07T07:33:57;7.35;;;4.43;;
46835;SDS011;32573;51.290;6.926;2022-12-07T07:36:25;7.47;;;4.30;;
46835;SDS011;32573;51.290;6.926;2022-12-07T07:38:56;8.07;;;5.10;;
46835;SDS011;32573;51.290;6.926;2022-12-07T07:41:26;6.63;;;3.92;;
46835;SDS011;32573;51.290;6.926;2022-12-07T07:43:54;6.60;;;3.70;;
46835;SDS011;32573;51.290;6.926;2022-12-07T07:46:22;7.50;;;4.25;;
46835;SDS011;32573;51.290;6.926;2022-12-07T07:48:51;7.03;;;3.80;;
46835;SDS011;32573;51.290;6.926;2022-12-07T07:51:21;6.45;;;3.90;;
46835;SDS011;32573;51.290;6.926;2022-12-07T07:53:52;7.00;;;4.10;;
46835;SDS011;32573;51.290;6.926;2022-12-07T07:56:23;7.07;;;3.90;;
46835;SDS011;32573;51.290;6.926;2022-12-07T07:58:52;5.65;;;3.50;;
46835;SDS011;32573;51.290;6.926;2022-12-07T08:01:21;5.70;;;3.08;;
46835;SDS011;32573;51.290;6.926;2022-12-07T08:03:49;5.95;;;3.25;;
46835;SDS011;32573;51.290;6.926;2022-12-07T08:06:17;5.97;;;3.58;;
46835;SDS011;32573;51.290;6.926;2022-12-07T08:08:46;6.20;;;3.33;;
46835;SDS011;32573;51.290;6.926;2022-12-07T08:11:15;5.93;;;3.28;;
46835;SDS011;32573;51.290;6.926;2022-12-07T08:13:44;6.43;;;3.45;;
46835;SDS011;32573;51.290;6.926;2022-12-07T08:16:13;7.13;;;3.60;;
46835;SDS011;32573;51.290;6.926;2022-12-07T08:18:42;8.02;;;3.53;;
46835;SDS011;32573;51.290;6.926;2022-12-07T08:21:12;5.90;;;3.20;;
46835;SDS011;32573;51.290;6.926;2022-12-07T08:23:42;7.15;;;4.15;;
46835;SDS011;32573;51.290;6.926;2022-12-07T08:26:14;7.78;;;4.32;;
46835;SDS011;32573;51.290;6.926;2022-12-07T08:28:44;7.45;;;3.83;;
46835;SDS011;32573;51.290;6.926;2022-12-07T08:31:13;8.15;;;4.25;;
46835;SDS011;32573;51.290;6.926;2022-12-07T08:33:45;6.60;;;4.05;;
46835;SDS011;32573;51.290;6.926;2022-12-07T08:36:14;6.55;;;3.65;;
46835;SDS011;32573;51.290;6.926;2022-12-07T08:38:43;7.13;;;3.78;;
46835;SDS011;32573;51.290;6.926;2022-12-07T08:41:32;6.40;;;3.70;;
46835;SDS011;32573;51.290;6.926;2022-12-07T08:44:01;5.43;;;3.60;;
46835;SDS011;32573;51.290;6.926;2022-12-07T08:46:30;6.22;;;3.72;;
46835;SDS011;32573;51.290;6.926;2022-12-07T08:49:05;6.60;;;4.00;;
46835;SDS011;32573;51.290;6.926;2022-12-07T08:51:35;5.60;;;3.50;;
46835;SDS011;32573;51.290;6.926;2022-12-07T08:54:05;11.02;;;6.80;;
46835;SDS011;32573;51.290;6.926;2022-12-07T08:56:38;11.70;;;6.43;;
46835;SDS011;32573;51.290;6.926;2022-12-07T08:59:07;8.38;;;4.93;;
46835;SDS011;32573;51.290;6.926;2022-12-07T09:01:36;8.63;;;5.35;;
46835;SDS011;32573;51.290;6.926;2022-12-07T09:04:04;9.02;;;4.93;;
46835;SDS011;32573;51.290;6.926;2022-12-07T09:06:33;9.85;;;4.88;;
46835;SDS011;32573;51.290;6.926;2022-12-07T09:09:02;12.00;;;6.32;;
46835;SDS011;32573;51.290;6.926;2022-12-07T09:11:31;9.40;;;6.10;;
46835;SDS011;32573;51.290;6.926;2022-12-07T09:14:01;13.38;;;6.70;;
46835;SDS011;32573;51.290;6.926;2022-12-07T09:16:29;9.95;;;5.43;;
46835;SDS011;32573;51.290;6.926;2022-12-07T09:18:57;11.88;;;6.28;;
46835;SDS011;32573;51.290;6.926;2022-12-07T09:21:26;10.30;;;5.78;;
46835;SDS011;32573;51.290;6.926;2022-12-07T09:23:54;10.25;;;5.43;;
46835;SDS011;32573;51.290;6.926;2022-12-07T09:26:23;9.60;;;5.53;;
46835;SDS011;32573;51.290;6.926;2022-12-07T09:28:51;8.45;;;4.70;;
46835;SDS011;32573;51.290;6.926;2022-12-07T09:31:21;9.65;;;5.88;;
46835;SDS011;32573;51.290;6.926;2022-12-07T09:33:54;10.48;;;6.32;;
46835;SDS011;32573;51.290;6.926;2022-12-07T09:36:23;11.48;;;7.05;;
46835;SDS011;32573;51.290;6.926;2022-12-07T09:38:52;11.70;;;6.57;;
46835;SDS011;32573;51.290;6.926;2022-12-07T09:41:20;9.98;;;6.32;;
46835;SDS011;32573;51.290;6.926;2022-12-07T09:43:50;11.77;;;6.57;;
46835;SDS011;32573;51.290;6.926;2022-12-07T09:46:21;11.68;;;6.40;;
46835;SDS011;32573;51.290;6.926;2022-12-07T09:48:50;11.68;;;6.47;;
46835;SDS011;32573;51.290;6.926;2022-12-07T09:51:19;14.85;;;6.70;;
46835;SDS011;32573;51.290;6.926;2022-12-07T09:53:52;12.13;;;7.40;;
46835;SDS011;32573;51.290;6.926;2022-12-07T09:56:21;12.75;;;6.88;;
46835;SDS011;32573;51.290;6.926;2022-12-07T09:58:51;11.68;;;5.93;;
46835;SDS011;32573;51.290;6.926;2022-12-07T10:01:29;8.23;;;5.38;;
46835;SDS011;32573;51.290;6.926;2022-12-07T10:04:00;10.38;;;6.35;;
46835;SDS011;32573;51.290;6.926;2022-12-07T10:06:37;9.55;;;5.00;;
46835;SDS011;32573;51.290;6.926;2022-12-07T10:09:08;9.65;;;5.75;;
46835;SDS011;32573;51.290;6.926;2022-12-07T10:14:33;10.18;;;5.00;;
46835;SDS011;32573;51.290;6.926;2022-12-07T10:17:35;5.93;;;4.00;;
46835;SDS011;32573;51.290;6.926;2022-12-07T10:20:13;8.07;;;4.20;;
46835;SDS011;32573;51.290;6.926;2022-12-07T10:22:57;7.88;;;5.07;;
46835;SDS011;32573;51.290;6.926;2022-12-07T10:25:28;7.38;;;4.65;;
46835;SDS011;32573;51.290;6.926;2022-12-07T10:28:00;16.50;;;7.10;;
46835;SDS011;32573;51.290;6.926;2022-12-07T10:30:30;12.25;;;6.38;;
46835;SDS011;32573;51.290;6.926;2022-12-07T10:33:01;12.80;;;6.45;;
46835;SDS011;32573;51.290;6.926;2022-12-07T10:35:30;7.97;;;4.78;;
46835;SDS011;32573;51.290;6.926;2022-12-07T10:37:59;8.45;;;4.90;;
46835;SDS011;32573;51.290;6.926;2022-12-07T10:40:29;7.47;;;4.18;;
46835;SDS011;32573;51.290;6.926;2022-12-07T10:43:00;12.02;;;6.63;;
46835;SDS011;32573;51.290;6.926;2022-12-07T10:45:34;8.57;;;4.67;;
46835;SDS011;32573;51.290;6.926;2022-12-07T10:51:06;9.95;;;5.53;;
46835;SDS011;32573;51.290;6.926;2022-12-07T10:53:44;12.80;;;7.80;;
46835;SDS011;32573;51.290;6.926;2022-12-07T10:56:25;14.25;;;7.40;;
46835;SDS011;32573;51.290;6.926;2022-12-07T10:59:09;11.70;;;6.35;;
46835;SDS011;32573;51.290;6.926;2022-12-07T11:01:57;8.80;;;5.05;;
46835;SDS011;32573;51.290;6.926;2022-12-07T11:04:48;14.93;;;7.80;;
46835;SDS011;32573;51.290;6.926;2022-12-07T11:07:30;13.10;;;7.43;;
46835;SDS011;32573;51.290;6.926;2022-12-07T11:10:13;13.15;;;6.90;;
46835;SDS011;32573;51.290;6.926;2022-12-07T11:12:53;9.38;;;5.63;;
46835;SDS011;32573;51.290;6.926;2022-12-07T11:15:34;11.27;;;5.90;;
46835;SDS011;32573;51.290;6.926;2022-12-07T11:18:14;10.93;;;6.10;;
46835;SDS011;32573;51.290;6.926;2022-12-07T11:20:54;13.38;;;5.85;;
46835;SDS011;32573;51.290;6.926;2022-12-07T11:23:34;12.05;;;5.32;;
46835;SDS011;32573;51.290;6.926;2022-12-07T11:26:15;10.70;;;5.32;;
46835;SDS011;32573;51.290;6.926;2022-12-07T11:29:01;8.70;;;4.53;;
46835;SDS011;32573;51.290;6.926;2022-12-07T11:31:50;8.70;;;4.50;;
46835;SDS011;32573;51.290;6.926;2022-12-07T11:34:27;8.60;;;5.25;;
46835;SDS011;32573;51.290;6.926;2022-12-07T11:37:05;10.80;;;4.70;;
46835;SDS011;32573;51.290;6.926;2022-12-07T11:39:41;10.75;;;5.32;;
46835;SDS011;32573;51.290;6.926;2022-12-07T11:42:16;10.50;;;4.40;;
46835;SDS011;32573;51.290;6.926;2022-12-07T11:44:50;9.32;;;4.90;;
46835;SDS011;32573;51.290;6.926;2022-12-07T11:47:25;9.85;;;4.53;;
46835;SDS011;32573;51.290;6.926;2022-12-07T11:50:01;9.60;;;4.32;;
46835;SDS011;32573;51.290;6.926;2022-12-07T11:52:44;9.18;;;4.53;;
46835;SDS011;32573;51.290;6.926;2022-12-07T11:55:19;11.82;;;4.45;;
46835;SDS011;32573;51.290;6.926;2022-12-07T12:00:25;7.95;;;3.67;;
46835;SDS011;32573;51.290;6.926;2022-12-07T12:02:56;6.75;;;3.50;;
46835;SDS011;32573;51.290;6.926;2022-12-07T12:05:29;8.07;;;3.80;;
46835;SDS011;32573;51.290;6.926;2022-12-07T12:08:02;8.43;;;4.38;;
46835;SDS011;32573;51.290;6.926;2022-12-07T12:11:00;7.15;;;3.80;;
46835;SDS011;32573;51.290;6.926;2022-12-07T12:13:47;10.55;;;3.92;;
46835;SDS011;32573;51.290;6.926;2022-12-07T12:17:00;6.15;;;3.00;;
46835;SDS011;32573;51.290;6.926;2022-12-07T12:19:40;6.30;;;2.75;;
46835;SDS011;32573;51.290;6.926;2022-12-07T12:22:12;5.82;;;2.80;;
46835;SDS011;32573;51.290;6.926;2022-12-07T12:24:45;6.38;;;3.05;;
46835;SDS011;32573;51.290;6.926;2022-12-07T12:27:20;5.00;;;2.60;;
46835;SDS011;32573;51.290;6.926;2022-12-07T12:29:53;8.02;;;3.10;;
46835;SDS011;32573;51.290;6.926;2022-12-07T12:32:29;8.43;;;3.10;;
46835;SDS011;32573;51.290;6.926;2022-12-07T12:35:22;8.85;;;3.13;;
46835;SDS011;32573;51.290;6.926;2022-12-07T12:40:54;6.85;;;3.08;;
46835;SDS011;32573;51.290;6.926;2022-12-07T12:49:32;5.90;;;2.80;;
46835;SDS011;32573;51.290;6.926;2022-12-07T12:55:22;10.73;;;3.47;;
46835;SDS011;32573;51.290;6.926;2022-12-07T12:58:30;6.85;;;3.03;;
46835;SDS011;32573;51.290;6.926;2022-12-07T13:04:23;8.75;;;3.20;;
46835;SDS011;32573;51.290;6.926;2022-12-07T13:06:55;7.57;;;2.88;;
46835;SDS011;32573;51.290;6.926;2022-12-07T13:09:24;6.10;;;2.58;;
46835;SDS011;32573;51.290;6.926;2022-12-07T13:11:56;7.65;;;2.90;;
46835;SDS011;32573;51.290;6.926;2022-12-07T13:17:56;4.70;;;2.03;;
46835;SDS011;32573;51.290;6.926;2022-12-07T13:20:40;5.63;;;1.83;;
46835;SDS011;32573;51.290;6.926;2022-12-07T13:23:12;3.87;;;1.50;;
46835;SDS011;32573;51.290;6.926;2022-12-07T13:25:54;3.50;;;1.50;;
46835;SDS011;32573;51.290;6.926;2022-12-07T13:28:32;3.50;;;1.42;;
46835;SDS011;32573;51.290;6.926;2022-12-07T13:31:14;3.88;;;1.50;;
46835;SDS011;32573;51.290;6.926;2022-12-07T13:33:50;3.13;;;1.48;;
46835;SDS011;32573;51.290;6.926;2022-12-07T13:36:20;4.35;;;1.60;;
46835;SDS011;32573;51.290;6.926;2022-12-07T13:38:52;2.90;;;1.50;;
46835;SDS011;32573;51.290;6.926;2022-12-07T13:41:28;3.20;;;1.60;;
46835;SDS011;32573;51.290;6.926;2022-12-07T13:44:01;2.83;;;1.35;;
46835;SDS011;32573;51.290;6.926;2022-12-07T13:46:40;2.15;;;1.10;;
46835;SDS011;32573;51.290;6.926;2022-12-07T13:49:17;3.45;;;1.30;;
46835;SDS011;32573;51.290;6.926;2022-12-07T13:51:48;2.95;;;1.40;;
46835;SDS011;32573;51.290;6.926;2022-12-07T13:54:17;2.72;;;1.30;;
46835;SDS011;32573;51.290;6.926;2022-12-07T13:56:49;2.97;;;1.35;;
46835;SDS011;32573;51.290;6.926;2022-12-07T13:59:19;3.53;;;1.40;;
46835;SDS011;32573;51.290;6.926;2022-12-07T14:01:50;3.47;;;1.40;;
46835;SDS011;32573;51.290;6.926;2022-12-07T14:04:28;2.30;;;1.20;;
46835;SDS011;32573;51.290;6.926;2022-12-07T14:06:59;3.58;;;1.35;;
46835;SDS011;32573;51.290;6.926;2022-12-07T14:09:29;3.70;;;1.48;;
46835;SDS011;32573;51.290;6.926;2022-12-07T14:11:58;2.90;;;1.40;;
46835;SDS011;32573;51.290;6.926;2022-12-07T14:14:27;4.32;;;1.40;;
46835;SDS011;32573;51.290;6.926;2022-12-07T14:17:09;5.25;;;1.70;;
46835;SDS011;32573;51.290;6.926;2022-12-07T14:19:45;3.08;;;1.42;;
46835;SDS011;32573;51.290;6.926;2022-12-07T14:22:20;6.00;;;3.08;;
46835;SDS011;32573;51.290;6.926;2022-12-07T14:24:57;6.78;;;2.08;;
46835;SDS011;32573;51.290;6.926;2022-12-07T14:27:30;4.13;;;1.70;;
46835;SDS011;32573;51.290;6.926;2022-12-07T14:30:05;4.10;;;2.10;;
46835;SDS011;32573;51.290;6.926;2022-12-07T14:32:43;4.25;;;1.92;;
46835;SDS011;32573;51.290;6.926;2022-12-07T14:35:16;5.13;;;2.40;;
46835;SDS011;32573;51.290;6.926;2022-12-07T14:37:46;5.30;;;2.35;;
46835;SDS011;32573;51.290;6.926;2022-12-07T14:40:16;4.68;;;2.13;;
46835;SDS011;32573;51.290;6.926;2022-12-07T14:42:47;5.90;;;1.90;;
46835;SDS011;32573;51.290;6.926;2022-12-07T14:45:19;3.92;;;1.80;;
46835;SDS011;32573;51.290;6.926;2022-12-07T14:47:48;4.40;;;1.80;;
46835;SDS011;32573;51.290;6.926;2022-12-07T14:50:39;3.45;;;1.60;;
46835;SDS011;32573;51.290;6.926;2022-12-07T14:53:33;4.32;;;1.80;;
46835;SDS011;32573;51.290;6.926;2022-12-07T14:56:04;3.40;;;1.50;;
46835;SDS011;32573;51.290;6.926;2022-12-07T14:58:33;3.65;;;1.40;;
46835;SDS011;32573;51.290;6.926;2022-12-07T15:01:02;4.88;;;1.60;;
46835;SDS011;32573;51.290;6.926;2022-12-07T15:03:31;3.80;;;1.73;;
46835;SDS011;32573;51.290;6.926;2022-12-07T15:06:02;3.72;;;1.50;;
46835;SDS011;32573;51.290;6.926;2022-12-07T15:08:32;3.78;;;1.50;;
46835;SDS011;32573;51.290;6.926;2022-12-07T15:11:00;4.00;;;1.38;;
46835;SDS011;32573;51.290;6.926;2022-12-07T15:13:29;4.18;;;1.80;;
46835;SDS011;32573;51.290;6.926;2022-12-07T15:16:16;3.60;;;1.77;;
46835;SDS011;32573;51.290;6.926;2022-12-07T15:18:48;4.28;;;1.73;;
46835;SDS011;32573;51.290;6.926;2022-12-07T15:21:38;3.97;;;1.85;;
46835;SDS011;32573;51.290;6.926;2022-12-07T15:24:07;4.85;;;1.60;;
46835;SDS011;32573;51.290;6.926;2022-12-07T15:26:36;3.17;;;1.50;;
46835;SDS011;32573;51.290;6.926;2022-12-07T15:29:06;4.28;;;1.70;;
46835;SDS011;32573;51.290;6.926;2022-12-07T15:31:35;2.92;;;1.40;;
46835;SDS011;32573;51.290;6.926;2022-12-07T15:34:22;3.05;;;1.30;;
46835;SDS011;32573;51.290;6.926;2022-12-07T15:36:52;3.65;;;1.58;;
46835;SDS011;32573;51.290;6.926;2022-12-07T15:39:21;3.60;;;1.60;;
46835;SDS011;32573;51.290;6.926;2022-12-07T15:41:49;4.55;;;2.00;;
46835;SDS011;32573;51.290;6.926;2022-12-07T15:44:17;3.05;;;1.52;;
46835;SDS011;32573;51.290;6.926;2022-12-07T15:47:03;4.75;;;1.50;;